sensor_id;sensor_type;location;lat;lon;timestamp;P1;durP1;ratioP1;P2;durP2;ratioP2
34491;SDS011;20737;49.908;8.126;2023-04-24T00:01:01;0.90;;;0.90;;
34491;SDS011;20737;49.908;8.126;2023-04-24T00:03:28;1.50;;;0.70;;
34491;SDS011;20737;49.908;8.126;2023-04-24T00:05:55;0.98;;;0.73;;
34491;SDS011;20737;49.908;8.126;2023-04-24T00:08:22;0.50;;;0.50;;
34491;SDS011;20737;49.908;8.126;2023-04-24T00:10:48;1.13;;;0.75;;
34491;SDS011;20737;49.908;8.126;2023-04-24T00:13:17;0.90;;;0.90;;
34491;SDS011;20737;49.908;8.126;2023-04-24T00:15:45;0.93;;;0.70;;
34491;SDS011;20737;49.908;8.126;2023-04-24T00:18:12;1.73;;;0.70;;
34491;SDS011;20737;49.908;8.126;2023-04-24T00:20:39;1.55;;;0.70;;
34491;SDS011;20737;49.908;8.126;2023-04-24T00:23:05;3.10;;;0.90;;
34491;SDS011;20737;49.908;8.126;2023-04-24T00:25:32;3.38;;;0.70;;
34491;SDS011;20737;49.908;8.126;2023-04-24T00:27:59;3.92;;;0.98;;
34491;SDS011;20737;49.908;8.126;2023-04-24T00:30:26;2.33;;;0.65;;
34491;SDS011;20737;49.908;8.126;2023-04-24T00:32:54;0.85;;;0.50;;
34491;SDS011;20737;49.908;8.126;2023-04-24T00:35:21;0.70;;;0.70;;
34491;SDS011;20737;49.908;8.126;2023-04-24T00:37:48;1.40;;;0.70;;
34491;SDS011;20737;49.908;8.126;2023-04-24T00:40:15;0.70;;;0.70;;
34491;SDS011;20737;49.908;8.126;2023-04-24T00:42:41;3.42;;;0.85;;
34491;SDS011;20737;49.908;8.126;2023-04-24T00:45:10;1.33;;;0.80;;
34491;SDS011;20737;49.908;8.126;2023-04-24T00:47:37;2.17;;;0.98;;
34491;SDS011;20737;49.908;8.126;2023-04-24T00:50:06;1.13;;;1.00;;
34491;SDS011;20737;49.908;8.126;2023-04-24T00:52:34;0.70;;;0.70;;
34491;SDS011;20737;49.908;8.126;2023-04-24T00:55:00;2.25;;;0.90;;
34491;SDS011;20737;49.908;8.126;2023-04-24T00:57:28;2.75;;;0.90;;
34491;SDS011;20737;49.908;8.126;2023-04-24T00:59:56;1.90;;;0.80;;
34491;SDS011;20737;49.908;8.126;2023-04-24T01:02:23;0.98;;;0.95;;
34491;SDS011;20737;49.908;8.126;2023-04-24T01:04:51;0.70;;;0.70;;
34491;SDS011;20737;49.908;8.126;2023-04-24T01:07:19;2.67;;;0.93;;
34491;SDS011;20737;49.908;8.126;2023-04-24T01:09:47;1.65;;;0.77;;
34491;SDS011;20737;49.908;8.126;2023-04-24T01:12:17;1.15;;;0.60;;
34491;SDS011;20737;49.908;8.126;2023-04-24T01:14:43;1.90;;;0.80;;
34491;SDS011;20737;49.908;8.126;2023-04-24T01:17:11;0.73;;;0.70;;
34491;SDS011;20737;49.908;8.126;2023-04-24T01:19:38;3.97;;;1.10;;
34491;SDS011;20737;49.908;8.126;2023-04-24T01:22:09;2.78;;;0.90;;
34491;SDS011;20737;49.908;8.126;2023-04-24T01:24:37;3.67;;;0.93;;
34491;SDS011;20737;49.908;8.126;2023-04-24T01:27:04;2.03;;;1.00;;
34491;SDS011;20737;49.908;8.126;2023-04-24T01:29:31;2.60;;;0.80;;
34491;SDS011;20737;49.908;8.126;2023-04-24T01:31:58;1.02;;;0.85;;
34491;SDS011;20737;49.908;8.126;2023-04-24T01:34:25;1.70;;;0.80;;
34491;SDS011;20737;49.908;8.126;2023-04-24T01:36:52;2.22;;;1.98;;
34491;SDS011;20737;49.908;8.126;2023-04-24T01:39:20;2.10;;;0.82;;
34491;SDS011;20737;49.908;8.126;2023-04-24T01:41:48;2.75;;;1.10;;
34491;SDS011;20737;49.908;8.126;2023-04-24T01:44:15;1.00;;;0.85;;
34491;SDS011;20737;49.908;8.126;2023-04-24T01:46:42;2.20;;;0.77;;
34491;SDS011;20737;49.908;8.126;2023-04-24T01:49:09;1.20;;;1.05;;
34491;SDS011;20737;49.908;8.126;2023-04-24T01:51:36;2.70;;;0.73;;
34491;SDS011;20737;49.908;8.126;2023-04-24T01:54:03;1.52;;;0.90;;
34491;SDS011;20737;49.908;8.126;2023-04-24T01:56:31;1.58;;;0.98;;
34491;SDS011;20737;49.908;8.126;2023-04-24T01:59:00;1.10;;;0.75;;
34491;SDS011;20737;49.908;8.126;2023-04-24T02:01:32;1.65;;;1.13;;
34491;SDS011;20737;49.908;8.126;2023-04-24T02:04:00;1.33;;;1.00;;
34491;SDS011;20737;49.908;8.126;2023-04-24T02:06:27;0.93;;;0.93;;
34491;SDS011;20737;49.908;8.126;2023-04-24T02:08:56;1.73;;;0.95;;
34491;SDS011;20737;49.908;8.126;2023-04-24T02:11:22;1.52;;;1.10;;
34491;SDS011;20737;49.908;8.126;2023-04-24T02:13:51;2.85;;;1.00;;
34491;SDS011;20737;49.908;8.126;2023-04-24T02:16:17;1.55;;;1.10;;
34491;SDS011;20737;49.908;8.126;2023-04-24T02:18:44;2.35;;;1.00;;
34491;SDS011;20737;49.908;8.126;2023-04-24T02:21:11;3.85;;;0.95;;
34491;SDS011;20737;49.908;8.126;2023-04-24T02:23:38;1.48;;;1.08;;
34491;SDS011;20737;49.908;8.126;2023-04-24T02:26:05;2.17;;;0.98;;
34491;SDS011;20737;49.908;8.126;2023-04-24T02:28:32;1.10;;;1.00;;
34491;SDS011;20737;49.908;8.126;2023-04-24T02:31:00;1.98;;;0.88;;
34491;SDS011;20737;49.908;8.126;2023-04-24T02:33:26;1.85;;;1.20;;
34491;SDS011;20737;49.908;8.126;2023-04-24T02:35:53;3.85;;;1.15;;
34491;SDS011;20737;49.908;8.126;2023-04-24T02:38:20;1.95;;;1.20;;
34491;SDS011;20737;49.908;8.126;2023-04-24T02:40:47;1.17;;;0.90;;
34491;SDS011;20737;49.908;8.126;2023-04-24T02:43:13;1.48;;;1.15;;
34491;SDS011;20737;49.908;8.126;2023-04-24T02:45:40;0.95;;;0.93;;
34491;SDS011;20737;49.908;8.126;2023-04-24T02:48:08;1.20;;;0.95;;
34491;SDS011;20737;49.908;8.126;2023-04-24T02:50:35;1.33;;;0.75;;
34491;SDS011;20737;49.908;8.126;2023-04-24T02:53:02;2.47;;;0.90;;
34491;SDS011;20737;49.908;8.126;2023-04-24T02:55:28;0.75;;;0.70;;
34491;SDS011;20737;49.908;8.126;2023-04-24T02:57:55;1.75;;;1.00;;
34491;SDS011;20737;49.908;8.126;2023-04-24T03:00:22;1.70;;;0.70;;
34491;SDS011;20737;49.908;8.126;2023-04-24T03:02:49;0.70;;;0.68;;
34491;SDS011;20737;49.908;8.126;2023-04-24T03:05:17;1.00;;;0.90;;
34491;SDS011;20737;49.908;8.126;2023-04-24T03:07:44;1.52;;;0.70;;
34491;SDS011;20737;49.908;8.126;2023-04-24T03:10:11;0.77;;;0.77;;
34491;SDS011;20737;49.908;8.126;2023-04-24T03:12:38;2.60;;;0.90;;
34491;SDS011;20737;49.908;8.126;2023-04-24T03:15:05;1.27;;;0.75;;
34491;SDS011;20737;49.908;8.126;2023-04-24T03:17:32;0.70;;;0.70;;
34491;SDS011;20737;49.908;8.126;2023-04-24T03:20:00;0.70;;;0.70;;
34491;SDS011;20737;49.908;8.126;2023-04-24T03:22:28;0.88;;;0.82;;
34491;SDS011;20737;49.908;8.126;2023-04-24T03:24:55;1.23;;;0.90;;
34491;SDS011;20737;49.908;8.126;2023-04-24T03:27:21;2.65;;;1.13;;
34491;SDS011;20737;49.908;8.126;2023-04-24T03:29:48;0.88;;;0.77;;
34491;SDS011;20737;49.908;8.126;2023-04-24T03:32:18;1.98;;;1.02;;
34491;SDS011;20737;49.908;8.126;2023-04-24T03:34:45;0.95;;;0.95;;
34491;SDS011;20737;49.908;8.126;2023-04-24T03:37:12;2.60;;;1.00;;
34491;SDS011;20737;49.908;8.126;2023-04-24T03:39:40;1.38;;;0.90;;
34491;SDS011;20737;49.908;8.126;2023-04-24T03:42:07;1.13;;;0.93;;
34491;SDS011;20737;49.908;8.126;2023-04-24T03:44:34;1.00;;;0.90;;
34491;SDS011;20737;49.908;8.126;2023-04-24T03:47:00;4.40;;;0.90;;
34491;SDS011;20737;49.908;8.126;2023-04-24T03:49:27;1.33;;;1.23;;
34491;SDS011;20737;49.908;8.126;2023-04-24T03:51:54;1.48;;;1.38;;
34491;SDS011;20737;49.908;8.126;2023-04-24T03:54:21;1.60;;;1.38;;
34491;SDS011;20737;49.908;8.126;2023-04-24T03:56:49;1.95;;;1.50;;
34491;SDS011;20737;49.908;8.126;2023-04-24T03:59:16;2.05;;;1.75;;
34491;SDS011;20737;49.908;8.126;2023-04-24T04:01:57;1.80;;;1.38;;
34491;SDS011;20737;49.908;8.126;2023-04-24T04:04:24;2.85;;;1.88;;
34491;SDS011;20737;49.908;8.126;2023-04-24T04:06:51;2.58;;;1.88;;
34491;SDS011;20737;49.908;8.126;2023-04-24T04:09:18;4.45;;;1.77;;
34491;SDS011;20737;49.908;8.126;2023-04-24T04:11:46;1.75;;;1.40;;
34491;SDS011;20737;49.908;8.126;2023-04-24T04:14:14;2.03;;;1.83;;
34491;SDS011;20737;49.908;8.126;2023-04-24T04:16:41;2.60;;;1.80;;
34491;SDS011;20737;49.908;8.126;2023-04-24T04:19:08;1.90;;;1.63;;
34491;SDS011;20737;49.908;8.126;2023-04-24T04:21:34;2.92;;;1.80;;
34491;SDS011;20737;49.908;8.126;2023-04-24T04:24:01;1.83;;;1.52;;
34491;SDS011;20737;49.908;8.126;2023-04-24T04:26:30;1.88;;;1.70;;
34491;SDS011;20737;49.908;8.126;2023-04-24T04:28:57;3.08;;;1.50;;
34491;SDS011;20737;49.908;8.126;2023-04-24T04:31:26;2.85;;;1.95;;
34491;SDS011;20737;49.908;8.126;2023-04-24T04:33:53;2.90;;;1.50;;
34491;SDS011;20737;49.908;8.126;2023-04-24T04:36:20;3.10;;;1.83;;
34491;SDS011;20737;49.908;8.126;2023-04-24T04:38:47;2.00;;;1.80;;
34491;SDS011;20737;49.908;8.126;2023-04-24T04:41:13;3.22;;;1.60;;
34491;SDS011;20737;49.908;8.126;2023-04-24T04:43:41;2.38;;;1.73;;
34491;SDS011;20737;49.908;8.126;2023-04-24T04:46:08;2.95;;;2.15;;
34491;SDS011;20737;49.908;8.126;2023-04-24T04:48:37;3.33;;;1.98;;
34491;SDS011;20737;49.908;8.126;2023-04-24T04:51:04;2.08;;;1.88;;
34491;SDS011;20737;49.908;8.126;2023-04-24T04:53:31;4.72;;;2.30;;
34491;SDS011;20737;49.908;8.126;2023-04-24T04:55:58;2.70;;;2.00;;
34491;SDS011;20737;49.908;8.126;2023-04-24T04:58:25;2.70;;;1.85;;
34491;SDS011;20737;49.908;8.126;2023-04-24T05:00:52;7.07;;;1.90;;
34491;SDS011;20737;49.908;8.126;2023-04-24T05:03:19;3.20;;;2.05;;
34491;SDS011;20737;49.908;8.126;2023-04-24T05:05:47;3.75;;;2.10;;
34491;SDS011;20737;49.908;8.126;2023-04-24T05:08:14;2.20;;;2.00;;
34491;SDS011;20737;49.908;8.126;2023-04-24T05:10:41;5.72;;;2.15;;
34491;SDS011;20737;49.908;8.126;2023-04-24T05:13:08;2.70;;;2.20;;
34491;SDS011;20737;49.908;8.126;2023-04-24T05:15:35;2.90;;;1.90;;
34491;SDS011;20737;49.908;8.126;2023-04-24T05:18:01;2.92;;;2.40;;
34491;SDS011;20737;49.908;8.126;2023-04-24T05:20:29;3.28;;;2.17;;
34491;SDS011;20737;49.908;8.126;2023-04-24T05:22:57;3.00;;;2.50;;
34491;SDS011;20737;49.908;8.126;2023-04-24T05:25:23;2.25;;;1.95;;
34491;SDS011;20737;49.908;8.126;2023-04-24T05:27:50;2.75;;;2.30;;
34491;SDS011;20737;49.908;8.126;2023-04-24T05:30:18;3.08;;;2.50;;
34491;SDS011;20737;49.908;8.126;2023-04-24T05:32:45;3.65;;;2.50;;
34491;SDS011;20737;49.908;8.126;2023-04-24T05:35:12;3.42;;;2.47;;
34491;SDS011;20737;49.908;8.126;2023-04-24T05:37:38;4.97;;;2.60;;
34491;SDS011;20737;49.908;8.126;2023-04-24T05:40:07;3.28;;;2.17;;
34491;SDS011;20737;49.908;8.126;2023-04-24T05:42:35;7.45;;;2.67;;
34491;SDS011;20737;49.908;8.126;2023-04-24T05:45:02;3.88;;;2.63;;
34491;SDS011;20737;49.908;8.126;2023-04-24T05:47:29;2.67;;;2.40;;
34491;SDS011;20737;49.908;8.126;2023-04-24T05:49:56;3.83;;;2.35;;
34491;SDS011;20737;49.908;8.126;2023-04-24T05:52:23;3.50;;;2.50;;
34491;SDS011;20737;49.908;8.126;2023-04-24T05:54:49;3.28;;;2.50;;
34491;SDS011;20737;49.908;8.126;2023-04-24T05:57:17;4.88;;;2.35;;
34491;SDS011;20737;49.908;8.126;2023-04-24T05:59:44;2.42;;;2.22;;
34491;SDS011;20737;49.908;8.126;2023-04-24T06:02:11;3.08;;;2.67;;
34491;SDS011;20737;49.908;8.126;2023-04-24T06:04:38;3.42;;;2.92;;
34491;SDS011;20737;49.908;8.126;2023-04-24T06:07:04;4.35;;;2.72;;
34491;SDS011;20737;49.908;8.126;2023-04-24T06:09:31;3.88;;;2.60;;
34491;SDS011;20737;49.908;8.126;2023-04-24T06:11:58;3.92;;;2.92;;
34491;SDS011;20737;49.908;8.126;2023-04-24T06:14:26;4.20;;;3.13;;
34491;SDS011;20737;49.908;8.126;2023-04-24T06:16:53;4.40;;;3.30;;
34491;SDS011;20737;49.908;8.126;2023-04-24T06:19:20;4.45;;;3.08;;
34491;SDS011;20737;49.908;8.126;2023-04-24T06:21:47;6.13;;;3.25;;
34491;SDS011;20737;49.908;8.126;2023-04-24T06:24:14;4.72;;;3.30;;
34491;SDS011;20737;49.908;8.126;2023-04-24T06:26:41;5.07;;;3.33;;
34491;SDS011;20737;49.908;8.126;2023-04-24T06:29:08;3.35;;;2.72;;
34491;SDS011;20737;49.908;8.126;2023-04-24T06:31:36;4.65;;;3.15;;
34491;SDS011;20737;49.908;8.126;2023-04-24T06:34:03;3.80;;;2.42;;
34491;SDS011;20737;49.908;8.126;2023-04-24T06:36:30;4.55;;;3.13;;
34491;SDS011;20737;49.908;8.126;2023-04-24T06:38:59;3.75;;;3.08;;
34491;SDS011;20737;49.908;8.126;2023-04-24T06:41:26;4.57;;;3.22;;
34491;SDS011;20737;49.908;8.126;2023-04-24T06:43:53;3.95;;;2.78;;
34491;SDS011;20737;49.908;8.126;2023-04-24T06:46:19;3.67;;;2.88;;
34491;SDS011;20737;49.908;8.126;2023-04-24T06:48:48;2.95;;;2.58;;
34491;SDS011;20737;49.908;8.126;2023-04-24T06:51:15;2.50;;;2.28;;
34491;SDS011;20737;49.908;8.126;2023-04-24T06:53:43;2.53;;;2.33;;
34491;SDS011;20737;49.908;8.126;2023-04-24T06:56:09;2.80;;;2.47;;
34491;SDS011;20737;49.908;8.126;2023-04-24T06:58:36;2.85;;;2.50;;
34491;SDS011;20737;49.908;8.126;2023-04-24T07:01:03;6.10;;;2.83;;
34491;SDS011;20737;49.908;8.126;2023-04-24T07:03:30;4.60;;;2.50;;
34491;SDS011;20737;49.908;8.126;2023-04-24T07:05:58;2.83;;;2.53;;
34491;SDS011;20737;49.908;8.126;2023-04-24T07:08:25;2.63;;;2.35;;
34491;SDS011;20737;49.908;8.126;2023-04-24T07:10:52;2.78;;;2.20;;
34491;SDS011;20737;49.908;8.126;2023-04-24T07:13:18;2.97;;;2.28;;
34491;SDS011;20737;49.908;8.126;2023-04-24T07:15:45;3.97;;;2.20;;
34491;SDS011;20737;49.908;8.126;2023-04-24T07:18:14;3.10;;;2.20;;
34491;SDS011;20737;49.908;8.126;2023-04-24T07:20:40;2.60;;;1.95;;
34491;SDS011;20737;49.908;8.126;2023-04-24T07:23:08;2.20;;;2.00;;
34491;SDS011;20737;49.908;8.126;2023-04-24T07:25:35;3.60;;;2.05;;
34491;SDS011;20737;49.908;8.126;2023-04-24T07:28:03;2.30;;;2.10;;
34491;SDS011;20737;49.908;8.126;2023-04-24T07:30:30;4.53;;;2.10;;
34491;SDS011;20737;49.908;8.126;2023-04-24T07:32:57;3.08;;;2.00;;
34491;SDS011;20737;49.908;8.126;2023-04-24T07:35:24;2.50;;;1.90;;
34491;SDS011;20737;49.908;8.126;2023-04-24T07:37:52;2.60;;;2.38;;
34491;SDS011;20737;49.908;8.126;2023-04-24T07:40:20;2.58;;;2.30;;
34491;SDS011;20737;49.908;8.126;2023-04-24T07:42:48;3.22;;;2.00;;
34491;SDS011;20737;49.908;8.126;2023-04-24T07:45:14;2.63;;;2.22;;
34491;SDS011;20737;49.908;8.126;2023-04-24T07:47:41;2.22;;;2.00;;
34491;SDS011;20737;49.908;8.126;2023-04-24T07:50:10;2.15;;;1.95;;
34491;SDS011;20737;49.908;8.126;2023-04-24T07:52:37;3.90;;;1.80;;
34491;SDS011;20737;49.908;8.126;2023-04-24T07:55:04;2.70;;;1.60;;
34491;SDS011;20737;49.908;8.126;2023-04-24T07:57:33;2.78;;;1.73;;
34491;SDS011;20737;49.908;8.126;2023-04-24T08:00:00;1.85;;;1.70;;
34491;SDS011;20737;49.908;8.126;2023-04-24T08:02:28;5.22;;;2.13;;
34491;SDS011;20737;49.908;8.126;2023-04-24T08:04:55;5.13;;;2.10;;
34491;SDS011;20737;49.908;8.126;2023-04-24T08:07:22;2.53;;;2.33;;
34491;SDS011;20737;49.908;8.126;2023-04-24T08:09:49;2.60;;;1.70;;
34491;SDS011;20737;49.908;8.126;2023-04-24T08:12:16;2.40;;;1.90;;
34491;SDS011;20737;49.908;8.126;2023-04-24T08:14:44;3.70;;;1.77;;
34491;SDS011;20737;49.908;8.126;2023-04-24T08:17:11;2.90;;;1.80;;
34491;SDS011;20737;49.908;8.126;2023-04-24T08:19:39;2.05;;;1.95;;
34491;SDS011;20737;49.908;8.126;2023-04-24T08:22:12;1.80;;;1.50;;
34491;SDS011;20737;49.908;8.126;2023-04-24T08:24:39;2.10;;;1.60;;
34491;SDS011;20737;49.908;8.126;2023-04-24T08:27:06;2.03;;;1.73;;
34491;SDS011;20737;49.908;8.126;2023-04-24T08:29:38;3.55;;;2.10;;
34491;SDS011;20737;49.908;8.126;2023-04-24T08:32:06;2.08;;;1.88;;
34491;SDS011;20737;49.908;8.126;2023-04-24T08:34:33;2.15;;;1.95;;
34491;SDS011;20737;49.908;8.126;2023-04-24T08:37:00;3.30;;;2.35;;
34491;SDS011;20737;49.908;8.126;2023-04-24T08:39:26;2.78;;;2.25;;
34491;SDS011;20737;49.908;8.126;2023-04-24T08:41:54;2.17;;;1.90;;
34491;SDS011;20737;49.908;8.126;2023-04-24T08:44:21;6.22;;;2.55;;
34491;SDS011;20737;49.908;8.126;2023-04-24T08:46:48;3.05;;;1.90;;
34491;SDS011;20737;49.908;8.126;2023-04-24T08:49:17;2.78;;;2.20;;
34491;SDS011;20737;49.908;8.126;2023-04-24T08:51:45;3.35;;;2.38;;
34491;SDS011;20737;49.908;8.126;2023-04-24T08:54:13;1.98;;;1.73;;
34491;SDS011;20737;49.908;8.126;2023-04-24T08:56:40;2.53;;;1.65;;
34491;SDS011;20737;49.908;8.126;2023-04-24T08:59:09;3.33;;;1.88;;
34491;SDS011;20737;49.908;8.126;2023-04-24T09:01:37;1.67;;;1.58;;
34491;SDS011;20737;49.908;8.126;2023-04-24T09:04:05;2.40;;;1.98;;
34491;SDS011;20737;49.908;8.126;2023-04-24T09:06:36;1.60;;;1.50;;
34491;SDS011;20737;49.908;8.126;2023-04-24T09:09:03;2.47;;;1.63;;
34491;SDS011;20737;49.908;8.126;2023-04-24T09:11:30;2.40;;;1.42;;
34491;SDS011;20737;49.908;8.126;2023-04-24T09:13:57;1.42;;;1.33;;
34491;SDS011;20737;49.908;8.126;2023-04-24T09:16:24;3.28;;;1.80;;
34491;SDS011;20737;49.908;8.126;2023-04-24T09:18:52;5.10;;;1.92;;
34491;SDS011;20737;49.908;8.126;2023-04-24T09:21:21;2.10;;;1.70;;
34491;SDS011;20737;49.908;8.126;2023-04-24T09:23:58;1.33;;;1.20;;
34491;SDS011;20737;49.908;8.126;2023-04-24T09:26:26;2.03;;;1.67;;
34491;SDS011;20737;49.908;8.126;2023-04-24T09:28:57;1.85;;;1.38;;
34491;SDS011;20737;49.908;8.126;2023-04-24T09:31:26;1.25;;;1.15;;
34491;SDS011;20737;49.908;8.126;2023-04-24T09:33:56;1.65;;;1.20;;
34491;SDS011;20737;49.908;8.126;2023-04-24T09:36:27;4.03;;;1.55;;
34491;SDS011;20737;49.908;8.126;2023-04-24T09:39:00;1.55;;;1.40;;
34491;SDS011;20737;49.908;8.126;2023-04-24T09:41:28;2.40;;;1.58;;
34491;SDS011;20737;49.908;8.126;2023-04-24T09:43:55;2.17;;;1.70;;
34491;SDS011;20737;49.908;8.126;2023-04-24T09:46:28;2.70;;;1.73;;
34491;SDS011;20737;49.908;8.126;2023-04-24T09:51:32;2.35;;;1.42;;
34491;SDS011;20737;49.908;8.126;2023-04-24T09:54:01;3.33;;;1.90;;
34491;SDS011;20737;49.908;8.126;2023-04-24T09:56:29;1.98;;;1.80;;
34491;SDS011;20737;49.908;8.126;2023-04-24T09:59:03;2.22;;;1.55;;
34491;SDS011;20737;49.908;8.126;2023-04-24T10:01:31;3.20;;;1.63;;
34491;SDS011;20737;49.908;8.126;2023-04-24T10:03:58;1.67;;;1.58;;
34491;SDS011;20737;49.908;8.126;2023-04-24T10:06:29;2.13;;;1.92;;
34491;SDS011;20737;49.908;8.126;2023-04-24T10:08:59;1.90;;;1.80;;
34491;SDS011;20737;49.908;8.126;2023-04-24T10:11:27;2.78;;;1.60;;
34491;SDS011;20737;49.908;8.126;2023-04-24T10:13:55;1.95;;;1.60;;
34491;SDS011;20737;49.908;8.126;2023-04-24T10:16:22;2.67;;;1.70;;
34491;SDS011;20737;49.908;8.126;2023-04-24T10:18:52;2.63;;;1.73;;
34491;SDS011;20737;49.908;8.126;2023-04-24T10:21:19;1.77;;;1.33;;
34491;SDS011;20737;49.908;8.126;2023-04-24T10:23:46;1.90;;;1.70;;
34491;SDS011;20737;49.908;8.126;2023-04-24T10:26:15;1.63;;;1.40;;
34491;SDS011;20737;49.908;8.126;2023-04-24T10:28:45;2.08;;;1.60;;
34491;SDS011;20737;49.908;8.126;2023-04-24T10:31:13;2.10;;;1.73;;
34491;SDS011;20737;49.908;8.126;2023-04-24T10:33:41;6.05;;;1.70;;
34491;SDS011;20737;49.908;8.126;2023-04-24T10:36:08;2.20;;;1.90;;
34491;SDS011;20737;49.908;8.126;2023-04-24T10:38:37;1.67;;;1.40;;
34491;SDS011;20737;49.908;8.126;2023-04-24T10:41:06;1.60;;;1.50;;
34491;SDS011;20737;49.908;8.126;2023-04-24T10:43:39;3.00;;;1.80;;
34491;SDS011;20737;49.908;8.126;2023-04-24T10:46:07;3.83;;;1.73;;
34491;SDS011;20737;49.908;8.126;2023-04-24T10:48:35;3.60;;;1.67;;
34491;SDS011;20737;49.908;8.126;2023-04-24T10:51:10;2.35;;;1.85;;
34491;SDS011;20737;49.908;8.126;2023-04-24T10:53:38;1.83;;;1.40;;
34491;SDS011;20737;49.908;8.126;2023-04-24T10:56:05;2.20;;;1.70;;
34491;SDS011;20737;49.908;8.126;2023-04-24T10:58:38;1.70;;;1.50;;
34491;SDS011;20737;49.908;8.126;2023-04-24T11:01:11;2.80;;;1.88;;
34491;SDS011;20737;49.908;8.126;2023-04-24T11:03:53;4.78;;;1.50;;
34491;SDS011;20737;49.908;8.126;2023-04-24T11:06:27;1.58;;;1.33;;
34491;SDS011;20737;49.908;8.126;2023-04-24T11:08:58;2.17;;;1.40;;
34491;SDS011;20737;49.908;8.126;2023-04-24T11:14:06;1.35;;;1.25;;
34491;SDS011;20737;49.908;8.126;2023-04-24T11:16:36;1.25;;;1.15;;
34491;SDS011;20737;49.908;8.126;2023-04-24T11:19:10;1.20;;;1.10;;
34491;SDS011;20737;49.908;8.126;2023-04-24T11:21:45;0.98;;;0.88;;
34491;SDS011;20737;49.908;8.126;2023-04-24T11:24:23;2.30;;;1.08;;
34491;SDS011;20737;49.908;8.126;2023-04-24T11:27:12;2.00;;;0.93;;
34491;SDS011;20737;49.908;8.126;2023-04-24T11:29:41;1.52;;;1.10;;
34491;SDS011;20737;49.908;8.126;2023-04-24T11:32:30;1.95;;;0.90;;
34491;SDS011;20737;49.908;8.126;2023-04-24T11:35:21;1.55;;;0.85;;
34491;SDS011;20737;49.908;8.126;2023-04-24T11:37:50;1.33;;;1.15;;
34491;SDS011;20737;49.908;8.126;2023-04-24T11:40:19;2.58;;;1.40;;
34491;SDS011;20737;49.908;8.126;2023-04-24T11:42:48;1.52;;;1.42;;
34491;SDS011;20737;49.908;8.126;2023-04-24T11:45:16;2.70;;;1.50;;
34491;SDS011;20737;49.908;8.126;2023-04-24T11:47:45;1.52;;;1.33;;
34491;SDS011;20737;49.908;8.126;2023-04-24T11:50:13;2.95;;;1.65;;
34491;SDS011;20737;49.908;8.126;2023-04-24T11:52:41;2.05;;;1.65;;
34491;SDS011;20737;49.908;8.126;2023-04-24T11:55:22;2.78;;;1.50;;
34491;SDS011;20737;49.908;8.126;2023-04-24T11:57:51;2.92;;;2.30;;
34491;SDS011;20737;49.908;8.126;2023-04-24T12:00:21;3.35;;;1.85;;
34491;SDS011;20737;49.908;8.126;2023-04-24T12:02:50;3.10;;;2.00;;
34491;SDS011;20737;49.908;8.126;2023-04-24T12:05:21;3.22;;;1.88;;
34491;SDS011;20737;49.908;8.126;2023-04-24T12:07:48;1.85;;;1.75;;
34491;SDS011;20737;49.908;8.126;2023-04-24T12:10:19;2.67;;;1.92;;
34491;SDS011;20737;49.908;8.126;2023-04-24T12:12:49;3.30;;;2.47;;
34491;SDS011;20737;49.908;8.126;2023-04-24T12:15:17;2.58;;;2.20;;
34491;SDS011;20737;49.908;8.126;2023-04-24T12:17:44;2.78;;;2.03;;
34491;SDS011;20737;49.908;8.126;2023-04-24T12:20:13;3.28;;;2.25;;
34491;SDS011;20737;49.908;8.126;2023-04-24T12:22:43;2.85;;;2.25;;
34491;SDS011;20737;49.908;8.126;2023-04-24T12:25:11;3.72;;;2.17;;
34491;SDS011;20737;49.908;8.126;2023-04-24T12:27:39;2.85;;;2.53;;
34491;SDS011;20737;49.908;8.126;2023-04-24T12:30:10;3.72;;;2.70;;
34491;SDS011;20737;49.908;8.126;2023-04-24T12:32:40;3.15;;;2.20;;
34491;SDS011;20737;49.908;8.126;2023-04-24T12:35:08;2.40;;;2.20;;
34491;SDS011;20737;49.908;8.126;2023-04-24T12:37:36;3.28;;;2.63;;
34491;SDS011;20737;49.908;8.126;2023-04-24T12:40:05;2.50;;;2.30;;
34491;SDS011;20737;49.908;8.126;2023-04-24T12:42:33;3.70;;;2.70;;
34491;SDS011;20737;49.908;8.126;2023-04-24T12:45:01;3.53;;;2.47;;
34491;SDS011;20737;49.908;8.126;2023-04-24T12:47:30;4.28;;;2.15;;
34491;SDS011;20737;49.908;8.126;2023-04-24T12:49:58;4.45;;;2.92;;
34491;SDS011;20737;49.908;8.126;2023-04-24T12:52:25;4.63;;;2.42;;
34491;SDS011;20737;49.908;8.126;2023-04-24T12:54:55;4.97;;;2.60;;
34491;SDS011;20737;49.908;8.126;2023-04-24T12:57:23;5.15;;;2.40;;
34491;SDS011;20737;49.908;8.126;2023-04-24T12:59:53;4.07;;;2.25;;
34491;SDS011;20737;49.908;8.126;2023-04-24T13:02:21;3.55;;;2.65;;
34491;SDS011;20737;49.908;8.126;2023-04-24T13:04:48;3.70;;;2.00;;
34491;SDS011;20737;49.908;8.126;2023-04-24T13:07:15;5.07;;;2.33;;
34491;SDS011;20737;49.908;8.126;2023-04-24T13:09:42;3.95;;;2.20;;
34491;SDS011;20737;49.908;8.126;2023-04-24T13:12:11;3.03;;;2.17;;
34491;SDS011;20737;49.908;8.126;2023-04-24T13:14:38;5.10;;;2.30;;
34491;SDS011;20737;49.908;8.126;2023-04-24T13:17:05;3.78;;;2.15;;
34491;SDS011;20737;49.908;8.126;2023-04-24T13:19:35;4.55;;;2.25;;
34491;SDS011;20737;49.908;8.126;2023-04-24T13:22:03;3.20;;;2.47;;
34491;SDS011;20737;49.908;8.126;2023-04-24T13:24:30;3.83;;;2.50;;
34491;SDS011;20737;49.908;8.126;2023-04-24T13:26:57;4.03;;;2.58;;
34491;SDS011;20737;49.908;8.126;2023-04-24T13:29:26;5.15;;;2.72;;
34491;SDS011;20737;49.908;8.126;2023-04-24T13:31:53;3.88;;;2.22;;
34491;SDS011;20737;49.908;8.126;2023-04-24T13:34:21;5.05;;;2.05;;
34491;SDS011;20737;49.908;8.126;2023-04-24T13:36:48;4.25;;;2.63;;
34491;SDS011;20737;49.908;8.126;2023-04-24T13:39:16;4.45;;;2.42;;
34491;SDS011;20737;49.908;8.126;2023-04-24T13:41:43;6.03;;;2.40;;
34491;SDS011;20737;49.908;8.126;2023-04-24T13:44:10;4.70;;;2.42;;
34491;SDS011;20737;49.908;8.126;2023-04-24T13:46:38;3.13;;;1.83;;
34491;SDS011;20737;49.908;8.126;2023-04-24T13:49:04;4.38;;;2.50;;
34491;SDS011;20737;49.908;8.126;2023-04-24T13:51:32;2.90;;;2.40;;
34491;SDS011;20737;49.908;8.126;2023-04-24T13:53:59;4.22;;;2.08;;
34491;SDS011;20737;49.908;8.126;2023-04-24T13:56:25;3.13;;;2.05;;
34491;SDS011;20737;49.908;8.126;2023-04-24T13:58:52;6.50;;;2.50;;
34491;SDS011;20737;49.908;8.126;2023-04-24T14:01:20;5.32;;;2.90;;
34491;SDS011;20737;49.908;8.126;2023-04-24T14:03:50;3.17;;;2.17;;
34491;SDS011;20737;49.908;8.126;2023-04-24T14:06:17;3.17;;;2.60;;
34491;SDS011;20737;49.908;8.126;2023-04-24T14:08:44;6.43;;;2.22;;
34491;SDS011;20737;49.908;8.126;2023-04-24T14:11:11;3.45;;;2.05;;
34491;SDS011;20737;49.908;8.126;2023-04-24T14:13:38;3.95;;;1.90;;
34491;SDS011;20737;49.908;8.126;2023-04-24T14:16:06;4.57;;;2.38;;
34491;SDS011;20737;49.908;8.126;2023-04-24T14:18:33;4.68;;;2.97;;
34491;SDS011;20737;49.908;8.126;2023-04-24T14:21:02;4.45;;;3.03;;
34491;SDS011;20737;49.908;8.126;2023-04-24T14:23:29;3.10;;;2.50;;
34491;SDS011;20737;49.908;8.126;2023-04-24T14:25:56;3.85;;;2.80;;
34491;SDS011;20737;49.908;8.126;2023-04-24T14:28:23;5.00;;;2.80;;
34491;SDS011;20737;49.908;8.126;2023-04-24T14:30:50;4.88;;;2.42;;
34491;SDS011;20737;49.908;8.126;2023-04-24T14:33:17;2.70;;;2.08;;
34491;SDS011;20737;49.908;8.126;2023-04-24T14:35:44;5.47;;;2.60;;
34491;SDS011;20737;49.908;8.126;2023-04-24T14:38:13;3.13;;;2.38;;
34491;SDS011;20737;49.908;8.126;2023-04-24T14:40:40;4.13;;;2.08;;
34491;SDS011;20737;49.908;8.126;2023-04-24T14:43:07;4.85;;;2.17;;
34491;SDS011;20737;49.908;8.126;2023-04-24T14:45:33;3.13;;;1.88;;
34491;SDS011;20737;49.908;8.126;2023-04-24T14:48:00;3.17;;;2.40;;
34491;SDS011;20737;49.908;8.126;2023-04-24T14:50:27;3.72;;;2.28;;
34491;SDS011;20737;49.908;8.126;2023-04-24T14:52:54;4.03;;;2.50;;
34491;SDS011;20737;49.908;8.126;2023-04-24T14:55:23;3.58;;;2.50;;
34491;SDS011;20737;49.908;8.126;2023-04-24T14:57:51;3.95;;;2.13;;